Time;durP1;ratioP1;P1;durP2;ratioP2;P2;SDS_P1;SDS_P2;PMS_P1;PMS_P2;Temp;Humidity;BMP_temperature;BMP_pressure;BME280_temperature;BME280_humidity;BME280_pressure;Samples;Min_cycle;Max_cycle;Signal;HPM_P1;HPM_P2
2021/05/03 00:01:10;;;;;;;10.70;2.77;;;;;;;21.30;26.33;94803.81;5070313;28;20239;-73
2021/05/03 00:03:36;;;;;;;11.23;2.17;;;;;;;21.27;26.38;94799.13;5070099;28;20188;-72
2021/05/03 00:06:03;;;;;;;17.10;2.83;;;;;;;21.18;26.65;94806.41;5070691;28;20199;-72
2021/05/03 00:08:29;;;;;;;18.67;3.10;;;;;;;21.33;26.75;94808.47;5070392;28;20611;-70
2021/05/03 00:10:56;;;;;;;14.10;2.33;;;;;;;21.10;27.12;94794.69;5070358;28;20207;-69
2021/05/03 00:13:22;;;;;;;10.60;2.20;;;;;;;21.12;26.69;94803.16;5070284;28;20245;-70
2021/05/03 00:15:48;;;;;;;9.20;2.20;;;;;;;21.21;26.80;94800.41;5052061;28;20753;-71
2021/05/03 00:18:15;;;;;;;18.00;2.40;;;;;;;21.25;26.31;94796.00;5070201;28;20657;-71
2021/05/03 00:20:41;;;;;;;12.73;1.97;;;;;;;21.13;26.62;94793.25;5072370;28;20733;-69
2021/05/03 00:23:08;;;;;;;12.70;2.27;;;;;;;20.99;26.71;94803.34;5077788;28;20542;-73
2021/05/03 00:25:34;;;;;;;15.33;2.20;;;;;;;20.83;26.72;94802.34;5070528;28;20191;-71
2021/05/03 00:28:01;;;;;;;11.23;2.30;;;;;;;20.80;26.72;94801.09;5069911;28;20246;-70
2021/05/03 00:30:27;;;;;;;12.10;2.03;;;;;;;20.91;26.20;94807.63;5070211;28;20200;-71
2021/05/03 00:32:53;;;;;;;12.10;1.93;;;;;;;20.89;26.13;94801.06;5069647;28;20191;-73
2021/05/03 00:35:20;;;;;;;13.07;2.50;;;;;;;20.36;26.18;94796.28;5052019;28;20242;-71
2021/05/03 00:37:48;;;;;;;6.03;1.93;;;;;;;20.52;26.29;94804.50;5069684;28;20202;-72
2021/05/03 00:40:15;;;;;;;10.90;2.10;;;;;;;20.31;26.04;94788.47;5069841;28;20204;-73
2021/05/03 00:42:44;;;;;;;9.30;1.80;;;;;;;20.21;25.83;94818.09;5069902;28;20891;-70
2021/05/03 00:45:13;;;;;;;9.83;1.73;;;;;;;19.76;26.36;94824.84;5069879;28;20692;-72
2021/05/03 00:47:40;;;;;;;12.30;2.33;;;;;;;19.73;26.64;94836.09;5069566;28;20582;-69
2021/05/03 00:50:09;;;;;;;13.03;2.17;;;;;;;19.97;26.16;94836.41;5070242;28;20203;-71
2021/05/03 00:52:39;;;;;;;9.17;2.40;;;;;;;19.98;26.62;94835.31;5069584;28;20889;-70
2021/05/03 00:55:06;;;;;;;14.70;2.00;;;;;;;19.60;26.35;94832.50;5069692;28;20423;-71
2021/05/03 00:57:34;;;;;;;9.67;1.97;;;;;;;19.71;26.10;94828.44;5069404;28;20545;-71
2021/05/03 01:00:01;;;;;;;9.53;1.77;;;;;;;19.82;25.80;94828.91;5070119;28;20472;-70
2021/05/03 01:02:28;;;;;;;11.30;1.63;;;;;;;20.09;25.84;94834.66;5069487;28;20450;-75
2021/05/03 01:04:54;;;;;;;8.40;1.90;;;;;;;20.02;25.77;94839.69;5072512;28;20319;-73
2021/05/03 01:07:21;;;;;;;5.47;1.37;;;;;;;20.10;25.92;94833.56;5073969;28;20441;-69
2021/05/03 01:09:47;;;;;;;6.27;1.97;;;;;;;20.18;26.22;94826.72;5075133;28;20473;-70
2021/05/03 01:12:13;;;;;;;7.13;1.40;;;;;;;20.12;25.90;94828.72;5073444;28;20196;-73
2021/05/03 01:14:40;;;;;;;8.13;1.73;;;;;;;20.08;26.12;94837.63;5073654;28;20596;-70
2021/05/03 01:17:07;;;;;;;10.80;1.50;;;;;;;19.99;26.59;94839.53;5073657;28;20265;-72
2021/05/03 01:19:34;;;;;;;6.43;2.10;;;;;;;19.87;27.24;94837.50;5073785;28;20444;-73
2021/05/03 01:22:00;;;;;;;9.87;2.20;;;;;;;19.85;27.06;94837.03;5072992;28;21068;-74
2021/05/03 01:24:27;;;;;;;6.80;1.60;;;;;;;19.54;26.62;94839.09;5073715;28;20811;-72
2021/05/03 01:26:53;;;;;;;6.90;1.60;;;;;;;19.36;26.48;94842.03;5073028;28;20188;-72
2021/05/03 01:29:20;;;;;;;4.67;1.50;;;;;;;19.19;26.82;94843.56;5073489;28;20438;-70
2021/05/03 01:31:49;;;;;;;8.87;1.60;;;;;;;19.23;26.80;94855.09;5072861;28;20458;-72
2021/05/03 01:34:16;;;;;;;7.93;1.70;;;;;;;19.36;26.99;94852.69;5073620;28;20430;-70
2021/05/03 01:36:45;;;;;;;8.57;1.43;;;;;;;19.55;27.27;94847.81;5073541;28;20437;-70
2021/05/03 01:39:16;;;;;;;14.30;1.93;;;;;;;19.48;27.43;94847.53;5073350;28;20440;-70
2021/05/03 01:41:44;;;;;;;8.63;1.70;;;;;;;19.57;27.17;94837.66;5072986;28;21055;-71
2021/05/03 01:44:13;;;;;;;6.67;1.60;;;;;;;19.68;nan;94841.59;5073439;28;20426;-70
2021/05/03 01:46:39;;;;;;;9.57;2.00;;;;;;;19.58;27.21;94828.63;5082717;28;20437;-69
2021/05/03 01:49:08;;;;;;;8.40;1.90;;;;;;;19.48;27.24;94839.53;5072632;28;20536;-70
2021/05/03 01:51:37;;;;;;;9.70;1.93;;;;;;;19.40;27.43;94853.59;5073282;28;20442;-74
2021/05/03 01:54:05;;;;;;;4.40;1.63;;;;;;;19.52;27.82;94857.22;5073024;28;20444;-75
2021/05/03 01:56:34;;;;;;;7.07;1.87;;;;;;;19.40;27.59;94861.56;5073030;28;20429;-70
2021/05/03 01:59:00;;;;;;;9.67;1.80;;;;;;;19.34;27.84;94878.78;5073016;28;20434;-70
2021/05/03 02:01:27;;;;;;;7.00;1.93;;;;;;;19.53;28.48;94890.66;5072701;28;20568;-72
2021/05/03 02:03:53;;;;;;;8.93;1.87;;;;;;;19.50;28.62;94886.00;5072694;28;20438;-72
2021/05/03 02:06:20;;;;;;;9.53;2.20;;;;;;;19.13;28.95;94876.66;5073070;28;20966;-69
2021/05/03 02:08:47;;;;;;;11.23;2.30;;;;;;;19.35;29.38;94883.78;5072575;28;20553;-72
2021/05/03 02:11:14;;;;;;;6.33;1.80;;;;;;;19.30;28.71;94896.38;5072411;28;20449;-72
2021/05/03 02:13:40;;;;;;;6.73;1.43;;;;;;;19.46;29.06;94897.53;5072340;28;21031;-69
2021/05/03 02:16:07;;;;;;;9.83;2.03;;;;;;;19.31;29.37;94897.94;5072265;28;20434;-70
2021/05/03 02:18:34;;;;;;;12.53;2.23;;;;;;;19.41;28.96;94900.34;5072495;28;20822;-70
2021/05/03 02:21:00;;;;;;;8.23;1.50;;;;;;;19.34;29.15;94898.16;5073060;28;20485;-71
2021/05/03 02:23:26;;;;;;;8.80;1.80;;;;;;;19.40;29.33;94896.09;5072046;28;20441;-74
2021/05/03 02:25:53;;;;;;;7.40;1.60;;;;;;;19.43;29.54;94879.56;5073156;28;20435;-71
2021/05/03 02:28:19;;;;;;;13.90;2.07;;;;;;;19.38;29.48;94887.69;5072027;28;20253;-67
2021/05/03 02:30:46;;;;;;;9.40;2.43;;;;;;;19.25;29.58;94877.94;5072185;28;20206;-70
2021/05/03 02:33:12;;;;;;;10.27;2.10;;;;;;;19.25;29.85;94891.22;5072088;28;20496;-74
2021/05/03 02:35:39;;;;;;;5.33;1.93;;;;;;;19.20;30.32;94890.28;5072425;28;20454;-70
2021/05/03 02:38:08;;;;;;;9.37;1.80;;;;;;;19.15;30.16;94876.34;5071717;28;20972;-71
2021/05/03 02:40:36;;;;;;;9.33;2.33;;;;;;;19.34;30.01;94894.72;5072268;28;20595;-74
2021/05/03 02:43:03;;;;;;;11.67;2.40;;;;;;;19.21;30.56;94899.78;5071882;28;20438;-74
2021/05/03 02:45:31;;;;;;;7.33;2.00;;;;;;;19.20;30.76;94897.44;5071935;28;20983;-70
2021/05/03 02:47:59;;;;;;;9.77;2.20;;;;;;;19.20;29.96;94908.88;5071855;28;20981;-73
2021/05/03 02:50:26;;;;;;;7.47;2.47;;;;;;;19.13;30.56;94913.84;5072275;28;20974;-71
2021/05/03 02:52:53;;;;;;;7.63;2.13;;;;;;;19.08;30.61;94927.28;5071981;28;20433;-71
2021/05/03 02:55:21;;;;;;;11.70;2.27;;;;;;;18.96;30.90;94924.41;5072067;28;20287;-75
2021/05/03 02:57:49;;;;;;;7.17;1.70;;;;;;;18.92;30.71;94928.00;5071354;28;20534;-69
2021/05/03 03:00:28;;;;;;;11.77;2.43;;;;;;;19.03;30.46;94938.00;5071802;28;20476;-71
2021/05/03 03:02:55;;;;;;;8.83;2.13;;;;;;;18.97;30.78;94941.13;5071774;28;20433;-73
2021/05/03 03:05:22;;;;;;;9.87;2.10;;;;;;;18.81;31.01;94935.41;5071914;28;20429;-68
2021/05/03 03:07:50;;;;;;;9.67;2.23;;;;;;;18.90;30.92;94936.22;5071767;28;20538;-72
2021/05/03 03:10:18;;;;;;;8.97;1.87;;;;;;;18.84;31.46;94942.00;5076912;28;20476;-72
2021/05/03 03:12:45;;;;;;;8.83;1.90;;;;;;;18.54;32.02;94938.25;5079419;28;20438;-73
2021/05/03 03:15:13;;;;;;;9.33;2.00;;;;;;;18.48;32.00;94939.47;5077023;28;20442;-72
2021/05/03 03:17:40;;;;;;;9.03;1.80;;;;;;;18.74;31.89;94932.41;5076368;28;20791;-71
2021/05/03 03:20:08;;;;;;;7.97;1.93;;;;;;;18.67;32.14;94932.06;5074667;28;20441;-71
2021/05/03 03:22:36;;;;;;;7.90;1.77;;;;;;;18.58;31.95;94947.16;5072376;28;20529;-72
2021/05/03 03:25:03;;;;;;;5.30;1.80;;;;;;;18.72;32.05;94955.81;5072192;28;20476;-71
2021/05/03 03:27:30;;;;;;;9.40;2.00;;;;;;;18.77;31.89;94954.94;5070228;28;21043;-68
2021/05/03 03:29:57;;;;;;;8.37;1.97;;;;;;;18.77;32.55;94969.00;5071589;28;20441;-73
2021/05/03 03:32:23;;;;;;;11.97;1.90;;;;;;;18.71;32.20;94964.88;5070892;28;20567;-69
2021/05/03 03:34:50;;;;;;;12.63;2.50;;;;;;;18.51;33.16;94975.22;5071369;28;20961;-73
2021/05/03 03:37:16;;;;;;;5.00;1.90;;;;;;;18.72;31.90;94981.59;5053016;28;20534;-72
2021/05/03 03:39:44;;;;;;;8.53;2.23;;;;;;;18.57;32.52;94974.81;5071265;28;21014;-73
2021/05/03 03:42:10;;;;;;;8.00;1.80;;;;;;;18.73;32.48;94973.34;5070474;28;21369;-73
2021/05/03 03:44:37;;;;;;;6.37;1.93;;;;;;;18.63;31.48;94973.56;5071189;28;20503;-70
2021/05/03 03:47:04;;;;;;;6.13;2.47;;;;;;;18.67;32.15;94989.66;5071000;28;20430;-72
2021/05/03 03:49:30;;;;;;;9.73;2.00;;;;;;;18.62;32.25;94993.25;5071186;28;20438;-75
2021/05/03 03:51:57;;;;;;;6.03;2.07;;;;;;;18.64;32.32;94996.38;5070272;28;20430;-71
2021/05/03 03:54:23;;;;;;;7.20;2.10;;;;;;;18.74;31.73;94985.50;5070878;28;20446;-71
2021/05/03 03:56:50;;;;;;;12.20;2.40;;;;;;;18.83;32.06;94990.88;5070786;28;20427;-70
2021/05/03 03:59:17;;;;;;;8.67;2.40;;;;;;;18.46;32.43;94983.31;5071045;28;20445;-72
2021/05/03 04:01:46;;;;;;;8.27;2.17;;;;;;;18.57;31.90;95000.56;5071099;28;20572;-74
2021/05/03 04:04:25;;;;;;;8.93;2.20;;;;;;;18.54;32.34;94999.28;5074419;28;20472;-69
2021/05/03 04:07:05;;;;;;;6.70;2.03;;;;;;;18.54;32.09;95007.25;5072981;28;20430;-73
2021/05/03 04:25:38;;;;;;;10.40;2.20;;;;;;;17.99;34.18;95037.66;5070475;28;20426;-71
2021/05/03 04:27:44;;;;;;;9.63;2.13;;;;;;;18.16;34.22;95040.47;5062146;28;20537;-72
2021/05/03 04:30:11;;;;;;;7.60;2.10;;;;;;;18.16;34.79;95029.84;5070514;28;20438;-73
2021/05/03 04:32:39;;;;;;;10.37;2.50;;;;;;;18.19;34.96;95030.03;5069771;28;20814;-70
2021/05/03 04:35:06;;;;;;;9.70;2.20;;;;;;;18.25;35.09;95030.69;5070784;28;20439;-69
2021/05/03 04:37:33;;;;;;;6.40;2.10;;;;;;;18.23;35.49;95030.22;5070188;28;20426;-69
2021/05/03 04:39:59;;;;;;;9.80;2.20;;;;;;;18.18;35.26;95040.94;5070612;28;20444;-70
2021/05/03 04:42:25;;;;;;;10.90;2.60;;;;;;;18.09;35.67;95048.84;5069528;28;20498;-70
2021/05/03 04:44:52;;;;;;;9.80;1.97;;;;;;;18.15;35.44;95046.84;5070247;28;20449;-73
2021/05/03 04:47:18;;;;;;;6.00;2.07;;;;;;;18.18;35.36;95054.22;5069917;28;20985;-70
2021/05/03 04:49:45;;;;;;;11.30;2.57;;;;;;;18.19;35.03;95063.75;5070316;28;20529;-69
2021/05/03 04:52:11;;;;;;;9.93;2.20;;;;;;;17.97;35.94;95066.34;5069363;28;20982;-70
2021/05/03 04:54:38;;;;;;;10.63;2.23;;;;;;;18.06;36.05;95064.56;5069687;28;21058;-70
2021/05/03 04:57:04;;;;;;;9.97;2.97;;;;;;;18.00;35.74;95071.84;5069735;28;20499;-70
2021/05/03 04:59:31;;;;;;;13.07;2.20;;;;;;;18.01;36.11;95075.28;5069907;28;20496;-71
2021/05/03 05:01:57;;;;;;;10.63;2.50;;;;;;;17.82;36.67;95054.19;5069287;28;20504;-72
2021/05/03 05:04:24;;;;;;;11.40;2.33;;;;;;;17.86;36.41;95075.56;5069986;28;20449;-71
2021/05/03 05:06:52;;;;;;;9.00;2.40;;;;;;;17.76;36.79;95086.38;5051707;28;20457;-72
2021/05/03 05:09:18;;;;;;;13.77;2.77;;;;;;;17.95;35.76;95073.81;5069770;28;20466;-70
2021/05/03 05:11:44;;;;;;;12.23;2.50;;;;;;;17.92;36.05;95085.78;5069303;28;20499;-70
2021/05/03 05:14:11;;;;;;;12.97;2.53;;;;;;;17.99;36.55;95096.00;5069521;28;20911;-70
2021/05/03 05:16:37;;;;;;;8.60;2.50;;;;;;;17.93;36.84;95097.97;5069723;28;20438;-71
2021/05/03 05:19:04;;;;;;;11.97;2.30;;;;;;;17.82;37.52;95080.69;5069040;28;20525;-71
2021/05/03 05:21:31;;;;;;;10.40;2.40;;;;;;;18.21;37.70;95104.78;5069547;28;20478;-71
2021/05/03 05:23:57;;;;;;;8.93;2.00;;;;;;;18.34;38.68;95108.50;5069376;28;20772;-73
2021/05/03 05:26:23;;;;;;;15.13;2.43;;;;;;;18.39;37.98;95108.41;5069658;28;20812;-71
2021/05/03 05:28:49;;;;;;;11.13;2.10;;;;;;;18.23;39.09;95115.09;5069196;28;20539;-73
2021/05/03 05:31:16;;;;;;;9.90;2.43;;;;;;;18.30;39.40;95120.81;5069327;28;20458;-71
2021/05/03 05:33:42;;;;;;;10.70;2.13;;;;;;;18.61;38.68;95124.38;5069873;28;20436;-70
2021/05/03 05:36:09;;;;;;;11.23;2.30;;;;;;;18.55;39.21;95112.31;5069823;28;20452;-71
2021/05/03 05:38:37;;;;;;;8.90;2.07;;;;;;;18.55;40.41;95119.50;5069144;28;20439;-70
2021/05/03 05:41:04;;;;;;;10.57;2.40;;;;;;;18.52;41.12;95131.47;5069280;28;20485;-71
2021/05/03 05:43:31;;;;;;;7.13;2.20;;;;;;;18.35;42.01;95127.84;5069017;28;20430;-69
2021/05/03 05:45:58;;;;;;;9.17;2.30;;;;;;;18.75;41.60;95133.09;5069662;28;20437;-69
2021/05/03 05:48:24;;;;;;;8.00;2.00;;;;;;;18.70;42.45;95135.84;5069306;28;20469;-70
2021/05/03 05:50:50;;;;;;;6.93;2.27;;;;;;;18.76;42.59;95116.06;5072014;28;20504;-71
2021/05/03 05:53:17;;;;;;;12.87;2.37;;;;;;;19.15;42.58;95145.44;5072636;28;20437;-73
2021/05/03 05:55:44;;;;;;;8.47;2.00;;;;;;;18.98;42.94;95142.63;5073630;28;20457;-70
2021/05/03 05:58:10;;;;;;;9.80;2.43;;;;;;;19.31;42.31;95147.69;5077170;28;20448;-70
2021/05/03 06:00:37;;;;;;;9.93;2.20;;;;;;;19.34;42.18;95145.28;5079843;28;20472;-73
2021/05/03 06:03:03;;;;;;;6.73;2.10;;;;;;;19.46;42.23;95134.06;5072697;28;20487;-73
2021/05/03 06:05:30;;;;;;;8.40;2.30;;;;;;;19.50;42.17;95135.81;5072918;28;20472;-70
2021/05/03 06:07:56;;;;;;;11.57;2.67;;;;;;;19.59;41.28;95138.50;5072483;28;20452;-71
2021/05/03 06:10:23;;;;;;;9.57;2.50;;;;;;;19.30;41.56;95141.63;5072892;28;20839;-72
2021/05/03 06:12:49;;;;;;;8.17;2.20;;;;;;;19.28;41.68;95148.31;5072173;28;20196;-74
2021/05/03 06:15:15;;;;;;;11.97;2.53;;;;;;;19.14;42.55;95149.16;5073539;28;20643;-74
2021/05/03 06:17:42;;;;;;;8.50;2.30;;;;;;;19.10;42.50;95148.19;5072417;28;20515;-71
2021/05/03 06:20:09;;;;;;;8.00;2.40;;;;;;;19.25;42.45;95148.94;5072969;28;20788;-70
2021/05/03 06:22:36;;;;;;;9.77;2.60;;;;;;;18.85;43.69;95138.16;5072343;28;20583;-70
2021/05/03 06:25:04;;;;;;;9.90;2.80;;;;;;;18.94;43.43;95146.97;5072789;28;20444;-69
2021/05/03 06:27:30;;;;;;;6.53;2.20;;;;;;;18.86;43.16;95155.69;5071999;28;20544;-74
2021/05/03 06:29:57;;;;;;;10.30;2.53;;;;;;;18.80;43.50;95156.88;5072377;28;20835;-71
2021/05/03 06:32:23;;;;;;;9.97;3.10;;;;;;;18.24;44.45;95151.16;5071871;28;20430;-73
2021/05/03 06:34:52;;;;;;;8.37;3.10;;;;;;;18.46;45.06;95159.22;5072735;28;20510;-73
2021/05/03 06:37:19;;;;;;;13.47;3.30;;;;;;;18.55;44.77;95161.94;5054301;28;20815;-74
2021/05/03 06:39:45;;;;;;;13.07;3.80;;;;;;;18.72;44.03;95144.31;5072354;28;20876;-73
2021/05/03 06:42:12;;;;;;;6.93;3.27;;;;;;;18.69;44.49;95142.25;5072197;28;20508;-72
2021/05/03 06:44:39;;;;;;;7.77;3.57;;;;;;;19.05;43.76;95145.66;5072181;28;20496;-69
2021/05/03 06:47:09;;;;;;;9.80;3.43;;;;;;;18.45;45.16;95136.41;5054280;28;20802;-74
2021/05/03 06:49:36;;;;;;;8.30;3.27;;;;;;;18.79;45.19;95146.56;5071985;28;20446;-75
2021/05/03 06:52:03;;;;;;;9.27;3.07;;;;;;;19.01;45.31;95147.34;5071698;28;20508;-71
2021/05/03 06:54:29;;;;;;;6.67;3.00;;;;;;;18.98;44.77;95139.97;5072225;28;20864;-73
2021/05/03 06:56:56;;;;;;;8.90;3.13;;;;;;;18.31;46.26;95159.50;5072129;28;21358;-70
2021/05/03 06:59:23;;;;;;;9.60;3.37;;;;;;;18.52;45.95;95151.94;5071963;28;20438;-72
2021/05/03 07:01:50;;;;;;;5.47;3.50;;;;;;;18.76;45.10;95152.44;5069711;28;20481;-70
2021/05/03 07:04:17;;;;;;;10.33;3.20;;;;;;;18.18;45.71;95141.72;5071806;28;20908;-71
2021/05/03 07:06:45;;;;;;;9.63;3.50;;;;;;;18.68;45.87;95143.34;5071813;28;20489;-70
2021/05/03 07:09:11;;;;;;;11.40;3.60;;;;;;;18.88;45.50;95136.78;5071233;28;20933;-74
2021/05/03 07:11:39;;;;;;;8.57;3.17;;;;;;;18.67;45.38;95133.81;5072120;28;20454;-72
2021/05/03 07:14:07;;;;;;;5.73;3.07;;;;;;;19.00;43.89;95134.38;5071361;28;20521;-70
2021/05/03 07:16:34;;;;;;;10.37;3.17;;;;;;;19.31;42.90;95143.19;5071751;28;20974;-74
2021/05/03 07:19:00;;;;;;;13.33;2.87;;;;;;;19.42;42.93;95117.16;5071162;28;20930;-71
2021/05/03 07:21:28;;;;;;;10.57;3.40;;;;;;;19.90;41.80;95128.63;5071543;28;20486;-72
2021/05/03 07:23:55;;;;;;;7.67;2.63;;;;;;;19.89;40.79;95127.09;5076804;28;20540;-70
2021/05/03 07:26:21;;;;;;;7.93;3.00;;;;;;;19.95;40.90;95136.47;5072940;28;20450;-71
2021/05/03 07:28:48;;;;;;;9.03;3.23;;;;;;;19.82;40.81;95132.84;5070838;28;20790;-71
2021/05/03 07:31:14;;;;;;;8.47;3.03;;;;;;;20.30;40.30;95143.50;5070951;28;20892;-69
2021/05/03 07:33:41;;;;;;;7.13;3.03;;;;;;;20.26;39.85;95142.56;5070703;28;20822;-72
2021/05/03 07:36:08;;;;;;;5.90;2.80;;;;;;;19.76;41.00;95141.25;5071191;28;20430;-70
2021/05/03 07:38:34;;;;;;;7.27;3.23;;;;;;;19.56;39.62;95133.81;5070998;28;20211;-74
2021/05/03 07:41:01;;;;;;;9.73;2.97;;;;;;;19.71;39.52;95136.06;5071041;28;21045;-71
2021/05/03 07:43:28;;;;;;;7.07;3.10;;;;;;;20.11;38.99;95151.72;5070226;28;20830;-71
2021/05/03 07:46:01;;;;;;;8.27;3.50;;;;;;;19.97;39.10;95147.59;5071158;28;20180;-72
2021/05/03 07:48:27;;;;;;;6.60;3.23;;;;;;;20.24;38.42;95134.09;5071000;28;20219;-71
2021/05/03 07:50:54;;;;;;;7.03;3.20;;;;;;;20.39;38.54;95125.66;5071206;28;20446;-71
2021/05/03 07:53:20;;;;;;;3.80;2.80;;;;;;;20.20;38.56;95117.16;5069953;28;20445;-73
2021/05/03 07:55:47;;;;;;;6.17;3.00;;;;;;;19.84;37.70;95112.03;5052631;28;20212;-70
2021/05/03 07:58:13;;;;;;;6.60;3.07;;;;;;;20.30;38.13;95135.53;5070414;28;20426;-70
2021/05/03 08:00:40;;;;;;;8.43;3.17;;;;;;;20.50;37.76;95137.59;5070954;28;20207;-70
2021/05/03 08:03:06;;;;;;;7.83;2.70;;;;;;;20.56;37.67;95131.03;5070222;28;20430;-72
2021/05/03 08:05:33;;;;;;;6.33;3.00;;;;;;;20.58;38.21;95122.72;5070635;28;20260;-70
2021/05/03 08:08:01;;;;;;;8.60;3.13;;;;;;;20.74;37.55;95143.25;5070245;28;20192;-70
2021/05/03 08:10:28;;;;;;;6.70;3.13;;;;;;;20.58;36.97;95118.19;5070149;28;20470;-69
2021/05/03 08:12:54;;;;;;;7.37;3.20;;;;;;;20.82;34.46;95139.81;5069434;28;20634;-71
2021/05/03 08:15:23;;;;;;;9.33;3.43;;;;;;;20.48;35.36;95137.13;5070494;28;20210;-68
2021/05/03 08:17:49;;;;;;;5.77;3.00;;;;;;;20.28;36.58;95139.56;5069876;28;20280;-72
2021/05/03 08:20:18;;;;;;;5.77;3.20;;;;;;;19.92;38.29;95153.06;5070326;28;20586;-71
2021/05/03 08:22:45;;;;;;;7.53;2.80;;;;;;;20.14;37.13;95161.72;5069901;28;20482;-69
2021/05/03 08:25:12;;;;;;;9.40;3.03;;;;;;;19.50;37.12;95161.59;5070609;28;20504;-71
2021/05/03 08:27:39;;;;;;;5.83;3.13;;;;;;;19.59;37.86;95175.72;5070019;28;20280;-71
2021/05/03 08:30:08;;;;;;;8.03;3.30;;;;;;;19.87;37.97;95150.53;5070116;28;20483;-73
2021/05/03 08:32:35;;;;;;;4.67;2.93;;;;;;;19.96;37.79;95159.34;5069471;28;20426;-71
2021/05/03 08:35:04;;;;;;;5.67;3.10;;;;;;;20.16;36.98;95164.09;5070185;28;20491;-72
2021/05/03 08:37:31;;;;;;;6.37;2.70;;;;;;;19.74;37.64;95172.69;5069888;28;20955;-71
2021/05/03 08:39:57;;;;;;;5.40;3.07;;;;;;;19.63;37.60;95171.38;5070203;28;20428;-70
2021/05/03 08:42:24;;;;;;;5.63;2.43;;;;;;;20.18;37.71;95188.56;5069264;28;21027;-73
2021/05/03 08:44:53;;;;;;;6.50;2.80;;;;;;;20.40;36.83;95185.03;5070627;28;20554;-71
2021/05/03 08:47:20;;;;;;;9.23;2.50;;;;;;;20.52;35.48;95167.34;5072328;28;20906;-72
2021/05/03 08:50:05;;;;;;;8.53;3.00;;;;;;;20.50;36.18;95168.75;5073063;28;20234;-72
2021/05/03 08:52:44;;;;;;;6.70;2.90;;;;;;;20.43;36.66;95145.25;5069445;28;20843;-71
2021/05/03 08:55:15;;;;;;;6.30;2.60;;;;;;;20.18;36.89;95161.94;5069991;28;20227;-74
2021/05/03 08:57:41;;;;;;;9.87;3.30;;;;;;;20.13;36.71;95148.75;5069649;28;20222;-70
2021/05/03 09:00:13;;;;;;;6.13;2.83;;;;;;;20.47;36.66;95164.84;5071331;28;20510;-74
2021/05/03 09:02:44;;;;;;;6.67;3.03;;;;;;;20.01;37.53;95164.50;5070959;28;21059;-72
2021/05/03 09:05:11;;;;;;;10.47;3.20;;;;;;;20.87;37.31;95165.50;5069673;28;20442;-74
2021/05/03 09:07:48;;;;;;;13.87;3.47;;;;;;;20.96;35.87;95158.31;5069689;28;20219;-70
2021/05/03 09:10:17;;;;;;;6.77;2.90;;;;;;;21.06;35.17;95161.47;5069501;28;20303;-70
2021/05/03 09:12:43;;;;;;;5.10;2.73;;;;;;;21.12;35.55;95168.22;5069003;28;20712;-70
2021/05/03 09:15:11;;;;;;;4.77;2.97;;;;;;;21.07;35.53;95152.38;5070044;28;20231;-72
2021/05/03 09:17:40;;;;;;;8.20;3.17;;;;;;;21.17;34.92;95141.38;5069255;28;20199;-70
2021/05/03 09:20:13;;;;;;;7.10;3.40;;;;;;;21.43;34.41;95141.34;5069885;28;20192;-72
2021/05/03 09:22:51;;;;;;;5.07;3.20;;;;;;;20.90;35.16;95139.03;5069113;28;20310;-71
2021/05/03 09:25:36;;;;;;;5.43;2.87;;;;;;;21.06;35.09;95129.50;5071727;28;20272;-71
2021/05/03 09:28:09;;;;;;;6.97;2.90;;;;;;;20.83;35.56;95136.06;5073254;28;20219;-71
2021/05/03 09:30:57;;;;;;;9.77;3.00;;;;;;;21.46;36.20;95129.28;5073575;28;20242;-71
2021/05/03 09:33:26;;;;;;;8.17;3.00;;;;;;;21.26;34.90;95117.38;5073088;28;20207;-73
2021/05/03 09:35:57;;;;;;;7.50;4.00;;;;;;;21.61;35.27;95131.41;5073838;28;20192;-73
2021/05/03 09:38:42;;;;;;;7.23;3.10;;;;;;;21.50;34.33;95143.50;5073137;28;20295;-71
2021/05/03 09:41:27;;;;;;;10.10;5.47;;;;;;;21.50;34.42;95138.19;5073070;28;20211;-70
2021/05/03 09:44:03;;;;;;;4.60;3.30;;;;;;;21.79;34.72;95136.41;5072980;28;20192;-71
2021/05/03 09:46:29;;;;;;;7.13;3.07;;;;;;;22.08;35.36;95139.09;5073135;28;20302;-71
2021/05/03 09:48:58;;;;;;;7.40;3.37;;;;;;;22.45;34.83;95132.16;5072633;28;20237;-70
2021/05/03 09:51:30;;;;;;;7.63;3.67;;;;;;;22.22;33.56;95128.22;5073076;28;20194;-72
2021/05/03 09:54:12;;;;;;;7.67;3.73;;;;;;;21.53;34.02;95134.91;5072959;28;20204;-70
2021/05/03 09:56:53;;;;;;;10.40;3.77;;;;;;;21.80;35.01;95126.53;5073590;28;20215;-72
2021/05/03 09:59:32;;;;;;;8.47;3.50;;;;;;;22.23;34.57;95129.78;5072860;28;20223;-71
2021/05/03 10:02:10;;;;;;;3.97;3.40;;;;;;;22.60;32.96;95139.63;5072269;28;20311;-72
2021/05/03 10:04:46;;;;;;;6.93;3.37;;;;;;;22.83;32.71;95132.84;5073063;28;20640;-72
2021/05/03 10:07:16;;;;;;;8.37;3.07;;;;;;;22.93;32.65;95121.78;5072441;28;20590;-71
2021/05/03 10:09:50;;;;;;;6.80;3.37;;;;;;;23.14;31.97;95124.41;5072550;28;20242;-71
2021/05/03 10:12:18;;;;;;;5.93;3.80;;;;;;;23.25;31.50;95132.84;5073579;28;20649;-70
2021/05/03 10:14:46;;;;;;;7.53;3.40;;;;;;;22.28;32.90;95137.59;5074267;28;20195;-72
2021/05/03 10:17:16;;;;;;;8.83;3.77;;;;;;;22.46;32.36;95128.41;5072503;28;20210;-70
2021/05/03 10:19:45;;;;;;;10.90;4.20;;;;;;;22.71;32.34;95119.44;5073035;28;20192;-70
2021/05/03 10:22:20;;;;;;;7.80;3.67;;;;;;;23.55;32.70;95112.88;5053692;28;20234;-71
2021/05/03 10:24:52;;;;;;;6.37;3.40;;;;;;;23.59;30.93;95100.41;5072806;28;20207;-70
2021/05/03 10:27:19;;;;;;;10.10;3.90;;;;;;;23.17;30.42;95105.81;5071800;28;20666;-70
2021/05/03 10:29:47;;;;;;;10.77;4.33;;;;;;;23.53;31.84;95107.09;5072316;28;20745;-71
2021/05/03 10:32:21;;;;;;;6.03;3.63;;;;;;;24.05;29.59;95113.41;5071852;28;20212;-74
2021/05/03 10:34:51;;;;;;;13.23;4.03;;;;;;;23.85;29.79;95125.75;5072428;28;20194;-71
2021/05/03 10:37:30;;;;;;;8.97;3.67;;;;;;;23.91;29.88;95118.28;5071492;28;20203;-70
2021/05/03 10:40:03;;;;;;;10.10;3.63;;;;;;;23.75;29.64;95120.06;5072171;28;20337;-70
2021/05/03 10:42:30;;;;;;;11.43;4.17;;;;;;;24.21;30.17;95110.84;5071556;28;20784;-72
2021/05/03 10:45:16;;;;;;;6.57;3.47;;;;;;;24.67;28.64;95108.44;5071951;28;20647;-70
2021/05/03 10:47:49;;;;;;;12.43;4.00;;;;;;;24.04;29.09;95103.81;5071747;28;20199;-70
2021/05/03 10:50:31;;;;;;;7.87;3.53;;;;;;;24.10;28.72;95105.19;5072154;28;20611;-70
2021/05/03 10:53:21;;;;;;;5.20;3.13;;;;;;;24.04;28.50;95114.53;5071860;28;20260;-70
2021/05/03 10:55:53;;;;;;;7.67;3.43;;;;;;;23.96;28.95;95110.03;5072061;28;20561;-71
2021/05/03 10:58:20;;;;;;;6.80;3.37;;;;;;;24.54;29.80;95106.91;5071150;28;20211;-70
2021/05/03 11:01:01;;;;;;;5.63;3.77;;;;;;;24.85;26.89;95099.03;5071678;28;20192;-71
2021/05/03 11:03:56;;;;;;;9.83;3.70;;;;;;;23.70;27.81;95114.94;5071910;28;20624;-71
2021/05/03 11:06:43;;;;;;;9.20;3.67;;;;;;;24.02;26.68;95106.06;5072860;28;20579;-70
2021/05/03 11:09:25;;;;;;;21.87;4.23;;;;;;;24.64;28.15;95108.34;5070919;28;20227;-71
2021/05/03 11:11:52;;;;;;;11.20;3.70;;;;;;;25.22;26.08;95101.59;5071234;28;20216;-71
2021/05/03 11:14:21;;;;;;;8.50;3.40;;;;;;;24.82;26.50;95102.41;5071776;28;20195;-71
2021/05/03 11:16:48;;;;;;;8.50;3.20;;;;;;;24.39;26.61;95098.78;5071072;28;20689;-69
2021/05/03 11:19:34;;;;;;;8.27;3.30;;;;;;;24.66;25.68;95096.16;5071662;28;20195;-70
2021/05/03 11:22:02;;;;;;;11.47;2.97;;;;;;;24.73;25.10;95107.13;5071176;28;20276;-72
2021/05/03 11:24:38;;;;;;;10.40;3.40;;;;;;;24.65;25.82;95110.66;5071535;28;20200;-71
2021/05/03 11:27:09;;;;;;;8.43;3.17;;;;;;;24.96;26.07;95110.84;5071300;28;20981;-72
2021/05/03 11:32:09;;;;;;;6.60;2.90;;;;;;;24.75;26.42;95123.66;5071075;28;20200;-71
2021/05/03 11:35:40;;;;;;;11.10;3.17;;;;;;;25.39;25.86;95095.94;5071495;28;20196;-72
2021/05/03 11:37:51;;;;;;;8.37;2.97;;;;;;;25.15;26.80;95101.38;5067580;28;20207;-69
2021/05/03 11:45:30;;;;;;;9.70;3.63;;;;;;;24.62;27.00;95108.69;5071860;28;20204;-71
2021/05/03 11:47:59;;;;;;;6.87;2.80;;;;;;;24.81;26.37;95086.66;5071051;28;20282;-70
2021/05/03 11:50:28;;;;;;;4.50;2.30;;;;;;;24.95;25.05;95098.56;5071579;28;20261;-70
2021/05/03 11:53:00;;;;;;;7.47;2.87;;;;;;;23.89;25.94;95099.88;5070434;28;20640;-71
2021/05/03 11:55:27;;;;;;;9.10;3.03;;;;;;;24.74;24.95;95092.59;5071883;28;20231;-70
2021/05/03 11:57:54;;;;;;;4.97;2.37;;;;;;;25.54;24.36;95082.56;5070350;28;20310;-71
2021/05/03 12:00:23;;;;;;;9.17;2.43;;;;;;;25.51;23.66;95082.47;5071451;28;20693;-71
2021/05/03 12:03:11;;;;;;;9.37;2.87;;;;;;;26.26;22.77;95075.13;5069833;28;20318;-73